Time;durP1;ratioP1;P1;durP2;ratioP2;P2;SDS_P1;SDS_P2;PMS_P1;PMS_P2;Temp;Humidity;BMP_temperature;BMP_pressure;BME280_temperature;BME280_humidity;BME280_pressure;Samples;Min_cycle;Max_cycle;Signal;HPM_P1;HPM_P2
2022/08/06 00:00:38;;;;;;;2.13;0.60;;;;;;;9.92;95.76;102292.31;2056293;28;28298;-73
2022/08/06 00:01:43;;;;;;;2.60;0.40;;;;;;;9.93;96.03;102283.38;2056216;28;20044;-73
2022/08/06 00:02:44;;;;;;;5.00;0.90;;;;;;;9.88;95.58;102284.28;2056063;28;37381;-72
2022/08/06 00:03:47;;;;;;;3.83;1.00;;;;;;;9.91;95.72;102298.53;2055900;28;29014;-73
2022/08/06 00:04:50;;;;;;;1.42;0.63;;;;;;;9.88;95.78;102295.84;2066946;28;26420;-73
2022/08/06 00:05:52;;;;;;;3.08;0.95;;;;;;;9.87;95.82;102298.53;2066053;28;26008;-72
2022/08/06 00:06:56;;;;;;;2.50;1.00;;;;;;;9.87;96.31;102298.53;2058243;28;27800;-73
2022/08/06 00:07:58;;;;;;;4.47;0.95;;;;;;;9.87;96.13;102303.88;2058858;28;26845;-73
2022/08/06 00:09:02;;;;;;;2.95;1.08;;;;;;;9.82;96.28;102293.19;2058783;28;27726;-73
2022/08/06 00:10:05;;;;;;;2.22;1.30;;;;;;;9.81;96.32;102303.88;2058359;28;33166;-73
2022/08/06 00:11:09;;;;;;;1.15;0.68;;;;;;;9.79;96.41;102303.88;2056726;28;20062;-73
2022/08/06 00:12:11;;;;;;;2.00;1.10;;;;;;;9.78;96.11;102296.75;2063356;28;20201;-73
2022/08/06 00:13:13;;;;;;;3.22;1.08;;;;;;;9.79;97.00;102302.97;2063622;28;28289;-73
2022/08/06 00:14:15;;;;;;;5.40;1.20;;;;;;;9.81;97.59;102303.88;2055803;28;25792;-73
2022/08/06 00:15:18;;;;;;;2.55;1.17;;;;;;;9.78;97.70;102302.09;2056154;28;24595;-73
2022/08/06 00:16:40;;;;;;;3.38;1.10;;;;;;;9.76;96.87;102303.84;2056351;28;20036;-72
2022/08/06 00:17:43;;;;;;;2.47;0.93;;;;;;;9.75;97.39;102307.44;2062865;28;34572;-73
2022/08/06 00:18:45;;;;;;;3.13;0.88;;;;;;;9.74;97.69;102309.22;2062426;28;34145;-73
2022/08/06 00:19:47;;;;;;;2.45;1.00;;;;;;;9.72;96.87;102310.09;2055268;28;24086;-73
2022/08/06 00:20:59;;;;;;;5.35;1.05;;;;;;;9.68;97.06;102317.22;2054758;28;25074;-73
2022/08/06 00:22:01;;;;;;;2.97;1.08;;;;;;;9.71;97.75;102311.88;2056101;28;20561;-73
2022/08/06 00:23:03;;;;;;;3.92;1.40;;;;;;;9.68;97.18;102313.66;2056326;28;20157;-73
2022/08/06 00:24:07;;;;;;;2.85;1.30;;;;;;;9.68;97.22;102308.31;2055938;28;32365;-73
2022/08/06 00:25:14;;;;;;;2.65;1.13;;;;;;;9.67;97.71;102314.53;2056500;28;23118;-73
2022/08/06 00:26:16;;;;;;;3.60;1.58;;;;;;;9.70;98.39;102312.75;2056151;28;20102;-73
2022/08/06 00:27:18;;;;;;;3.22;1.27;;;;;;;9.69;97.33;102320.78;2055426;28;26747;-73
2022/08/06 00:28:26;;;;;;;2.67;1.30;;;;;;;9.67;97.38;102319.88;2048473;28;20052;-73
2022/08/06 00:29:32;;;;;;;3.17;1.55;;;;;;;9.65;97.18;102314.50;2055024;28;29425;-75
2022/08/06 00:30:44;;;;;;;4.80;1.45;;;;;;;9.67;97.60;102322.56;2055418;28;37343;-72
2022/08/06 00:31:46;;;;;;;3.85;2.05;;;;;;;9.77;99.14;102316.34;2055709;28;30040;-72
2022/08/06 00:32:50;;;;;;;3.08;1.40;;;;;;;9.69;97.71;102321.69;2055560;28;26457;-72
2022/08/06 00:33:55;;;;;;;4.82;1.35;;;;;;;9.72;97.95;102316.31;2055071;28;20957;-73
2022/08/06 00:34:58;;;;;;;3.20;1.20;;;;;;;9.74;97.15;102314.56;2055033;28;30952;-72
2022/08/06 00:36:01;;;;;;;2.88;1.55;;;;;;;9.72;97.35;102321.66;2056418;28;20047;-73
2022/08/06 00:37:03;;;;;;;1.70;1.10;;;;;;;9.73;97.01;102317.25;2055605;28;22602;-73
2022/08/06 00:38:04;;;;;;;1.10;0.98;;;;;;;9.68;96.59;102319.00;2063014;28;41206;-73
2022/08/06 00:39:07;;;;;;;4.03;1.13;;;;;;;9.66;96.48;102323.47;2062770;28;33070;-73
2022/08/06 00:40:10;;;;;;;1.60;1.05;;;;;;;9.64;97.19;102327.91;2063311;28;27722;-73
2022/08/06 00:41:14;;;;;;;4.43;1.40;;;;;;;9.61;97.28;102328.78;2062917;28;28027;-75
2022/08/06 00:42:17;;;;;;;4.22;1.45;;;;;;;9.64;97.82;102331.47;2055118;28;29561;-73
2022/08/06 00:43:20;;;;;;;2.67;1.48;;;;;;;9.60;97.80;102335.03;2055668;28;20138;-75
2022/08/06 00:44:21;;;;;;;3.05;1.58;;;;;;;9.59;97.47;102330.56;2063003;28;25576;-73
2022/08/06 00:45:34;;;;;;;2.38;1.20;;;;;;;9.58;97.94;102330.53;2061888;28;25738;-73
2022/08/06 00:46:38;;;;;;;1.92;1.35;;;;;;;9.64;98.65;102343.97;2055216;28;24808;-73
2022/08/06 00:47:40;;;;;;;4.50;1.73;;;;;;;9.65;98.86;102337.69;2055696;28;20035;-73
2022/08/06 00:49:02;;;;;;;2.17;1.60;;;;;;;9.65;98.30;102343.94;2052751;28;20038;-72
2022/08/06 00:50:09;;;;;;;1.83;1.40;;;;;;;9.63;98.27;102345.72;2055468;28;20046;-72
2022/08/06 00:51:11;;;;;;;3.35;1.33;;;;;;;9.62;98.49;102346.63;2055116;28;30916;-73
2022/08/06 00:52:19;;;;;;;2.83;1.52;;;;;;;9.65;98.50;102346.59;2055259;28;31127;-73
2022/08/06 00:53:21;;;;;;;3.03;1.65;;;;;;;9.70;98.83;102350.19;2055716;28;30109;-72
2022/08/06 00:54:23;;;;;;;1.30;1.20;;;;;;;9.65;98.72;102357.31;2055043;28;40247;-73
2022/08/06 00:55:29;;;;;;;2.67;2.28;;;;;;;9.79;99.88;102346.66;2055680;28;23630;-73
2022/08/06 00:56:33;;;;;;;7.95;2.05;;;;;;;9.75;98.93;102360.91;2056395;28;20043;-72
2022/08/06 00:57:39;;;;;;;1.92;1.65;;;;;;;9.72;99.08;102348.41;2055543;28;26338;-73
2022/08/06 00:58:41;;;;;;;2.88;1.85;;;;;;;9.71;99.12;102353.78;2054349;28;36863;-72
2022/08/06 00:59:43;;;;;;;3.20;1.60;;;;;;;9.64;98.34;102355.53;2055227;28;25150;-72
2022/08/06 01:00:45;;;;;;;2.08;1.58;;;;;;;9.60;98.55;102361.78;2055677;28;24069;-74
2022/08/06 01:01:52;;;;;;;1.92;1.65;;;;;;;9.59;98.89;102359.09;2056040;28;20039;-74
2022/08/06 01:02:54;;;;;;;3.25;1.60;;;;;;;9.54;97.88;102359.06;2055710;28;31796;-74
2022/08/06 01:03:56;;;;;;;3.38;1.40;;;;;;;9.50;98.85;102359.94;2055277;28;28024;-74
2022/08/06 01:04:58;;;;;;;2.83;1.40;;;;;;;9.51;98.65;102367.06;2055126;28;29562;-74
2022/08/06 01:06:01;;;;;;;1.88;1.67;;;;;;;9.50;99.24;102365.28;2055541;28;25463;-75
2022/08/06 01:07:08;;;;;;;1.92;1.73;;;;;;;9.44;99.53;102363.47;2056052;28;20039;-74
2022/08/06 01:08:12;;;;;;;2.83;1.92;;;;;;;9.48;99.65;102378.63;2062959;28;29903;-74
2022/08/06 01:09:14;;;;;;;3.05;1.92;;;;;;;9.45;99.48;102362.56;2062598;28;25772;-74
2022/08/06 01:10:16;;;;;;;4.03;2.20;;;;;;;9.46;100.00;102372.41;2055461;28;30392;-75
2022/08/06 01:11:18;;;;;;;5.97;2.58;;;;;;;9.47;100.00;102374.16;2056164;28;24018;-74
2022/08/06 01:12:19;;;;;;;4.93;2.20;;;;;;;9.51;100.00;102375.06;2055298;28;35423;-75
2022/08/06 01:13:25;;;;;;;2.28;1.90;;;;;;;9.51;100.00;102376.00;2055736;28;30453;-72
2022/08/06 01:14:47;;;;;;;2.90;1.90;;;;;;;9.46;100.00;102372.41;2055808;28;20039;-74
2022/08/06 01:16:17;;;;;;;7.72;2.38;;;;;;;9.53;100.00;102376.00;2063576;28;24160;-74
2022/08/06 01:18:09;;;;;;;3.05;2.05;;;;;;;9.46;99.82;102369.72;2057995;28;35726;-74
2022/08/06 01:19:43;;;;;;;3.22;1.83;;;;;;;9.45;99.50;102372.38;2051164;28;25270;-74
2022/08/06 01:21:36;;;;;;;5.28;2.42;;;;;;;9.48;100.00;102370.63;2057631;28;32063;-74
2022/08/06 01:23:14;;;;;;;4.60;2.90;;;;;;;9.43;100.00;102372.38;2054974;28;20035;-74
2022/08/06 01:24:53;;;;;;;3.25;2.25;;;;;;;9.40;99.44;102379.47;2055279;28;40282;-74
2022/08/06 01:26:36;;;;;;;3.00;2.47;;;;;;;9.34;99.73;102380.34;2055720;28;28314;-74
2022/08/06 01:27:43;;;;;;;5.07;2.17;;;;;;;9.37;100.00;102380.38;2055361;28;29844;-74
2022/08/06 01:29:00;;;;;;;4.32;2.72;;;;;;;9.38;100.00;102386.59;2055667;28;28826;-74
2022/08/06 01:30:19;;;;;;;2.35;2.00;;;;;;;9.33;99.34;102383.91;2054860;28;20075;-74
2022/08/06 01:31:38;;;;;;;3.53;2.72;;;;;;;9.28;100.00;102383.00;2054382;28;33392;-74
2022/08/06 01:33:12;;;;;;;4.13;2.38;;;;;;;9.25;100.00;102383.84;2055296;28;31677;-75
2022/08/06 01:34:35;;;;;;;4.88;2.67;;;;;;;9.24;100.00;102382.09;2054894;28;31439;-74
2022/08/06 01:35:42;;;;;;;4.03;2.55;;;;;;;9.21;100.00;102376.72;2054559;28;33726;-74
2022/08/06 01:37:14;;;;;;;3.58;3.13;;;;;;;9.28;100.00;102377.66;2053574;28;20098;-74
2022/08/06 01:38:41;;;;;;;3.90;2.78;;;;;;;9.25;100.00;102383.84;2054565;28;30007;-72
2022/08/06 01:39:50;;;;;;;5.05;2.63;;;;;;;9.24;100.00;102383.84;2055670;28;20050;-72
2022/08/06 01:41:00;;;;;;;2.22;1.88;;;;;;;9.22;100.00;102381.16;2055533;28;28893;-74
2022/08/06 01:42:04;;;;;;;3.00;2.70;;;;;;;9.21;100.00;102381.19;2054552;28;28875;-74
2022/08/06 01:43:13;;;;;;;4.15;2.92;;;;;;;9.18;100.00;102387.38;2054596;28;31767;-74
2022/08/06 01:44:31;;;;;;;3.40;2.60;;;;;;;9.18;100.00;102382.03;2054227;28;39844;-74
2022/08/06 01:45:37;;;;;;;5.25;2.60;;;;;;;9.14;100.00;102381.13;2055529;28;20043;-74
2022/08/06 01:47:10;;;;;;;2.83;2.55;;;;;;;9.28;100.00;102380.34;2054986;28;30704;-75
2022/08/06 01:48:22;;;;;;;2.60;2.40;;;;;;;9.15;100.00;102380.25;2054344;28;36892;-74
2022/08/06 01:49:31;;;;;;;3.40;2.60;;;;;;;9.11;100.00;102374.88;2054719;28;31861;-74
2022/08/06 01:50:58;;;;;;;3.85;2.33;;;;;;;9.05;100.00;102380.19;2056001;28;20032;-74
2022/08/06 01:52:02;;;;;;;3.17;2.45;;;;;;;9.03;100.00;102377.50;2054508;28;36692;-73
2022/08/06 01:53:18;;;;;;;4.20;3.00;;;;;;;8.98;100.00;102385.47;2054638;28;31633;-75
2022/08/06 01:54:37;;;;;;;7.13;2.70;;;;;;;8.98;100.00;102392.59;2055503;28;20145;-74
2022/08/06 01:55:44;;;;;;;2.75;2.00;;;;;;;8.94;100.00;102388.13;2055607;28;32952;-75
2022/08/06 01:57:00;;;;;;;3.13;2.50;;;;;;;8.93;100.00;102387.22;2054668;28;33788;-74
2022/08/06 01:58:05;;;;;;;3.13;2.92;;;;;;;8.96;100.00;102391.69;2054362;28;32653;-74
2022/08/06 01:59:16;;;;;;;3.22;2.88;;;;;;;8.92;100.00;102389.91;2055033;28;24760;-74
2022/08/06 02:00:19;;;;;;;4.13;3.40;;;;;;;8.98;100.00;102388.13;2054864;28;26200;-74
2022/08/06 02:01:24;;;;;;;5.93;3.50;;;;;;;8.97;100.00;102389.03;2055464;28;20916;-73
2022/08/06 02:02:29;;;;;;;3.38;3.08;;;;;;;8.91;100.00;102394.31;2054840;28;20820;-74
2022/08/06 02:03:54;;;;;;;4.22;3.00;;;;;;;8.91;100.00;102394.31;2054819;28;24419;-74
2022/08/06 02:05:06;;;;;;;4.15;2.60;;;;;;;8.86;100.00;102398.72;2055712;28;20057;-74
2022/08/06 02:06:16;;;;;;;3.08;2.13;;;;;;;8.83;100.00;102389.81;2047100;28;29108;-74
2022/08/06 02:07:24;;;;;;;4.57;3.45;;;;;;;8.84;100.00;102392.47;2054278;28;27725;-74
2022/08/06 02:08:51;;;;;;;3.53;3.20;;;;;;;8.84;100.00;102388.94;2050967;28;20044;-73
2022/08/06 02:09:55;;;;;;;5.03;3.50;;;;;;;8.81;100.00;102394.25;2054996;28;20047;-74
2022/08/06 02:10:58;;;;;;;4.13;2.80;;;;;;;8.81;100.00;102394.25;2054576;28;20125;-74
2022/08/06 02:12:09;;;;;;;3.55;2.78;;;;;;;8.81;100.00;102400.50;2054465;28;38920;-74
2022/08/06 02:13:15;;;;;;;6.90;3.85;;;;;;;8.85;100.00;102393.41;2045854;28;40631;-75
2022/08/06 02:14:20;;;;;;;3.70;3.13;;;;;;;8.80;100.00;102393.34;2048987;28;29543;-74
2022/08/06 02:15:27;;;;;;;3.60;2.60;;;;;;;8.79;100.00;102402.22;2055123;28;20157;-74
2022/08/06 02:16:42;;;;;;;4.22;3.33;;;;;;;8.77;100.00;102393.31;2049380;28;30746;-74
2022/08/06 02:17:54;;;;;;;4.47;3.40;;;;;;;8.81;100.00;102396.91;2054512;28;29369;-74
2022/08/06 02:19:08;;;;;;;3.85;2.90;;;;;;;8.78;100.00;102393.34;2054802;28;31912;-74
2022/08/06 02:20:15;;;;;;;3.30;3.00;;;;;;;8.73;100.00;102395.06;2055433;28;30166;-74
2022/08/06 02:21:22;;;;;;;4.20;3.17;;;;;;;8.72;100.00;102401.31;2055215;28;26316;-74
2022/08/06 02:22:36;;;;;;;4.20;2.42;;;;;;;8.67;100.00;102403.03;2055336;28;26662;-74
2022/08/06 02:23:40;;;;;;;3.95;3.17;;;;;;;8.63;100.00;102401.22;2054364;28;25982;-74
2022/08/06 02:24:44;;;;;;;4.28;2.88;;;;;;;8.60;100.00;102402.09;2054531;28;29534;-74
2022/08/06 02:25:48;;;;;;;4.18;3.38;;;;;;;8.67;100.00;102403.03;2054475;28;28393;-75
2022/08/06 02:26:55;;;;;;;3.42;2.60;;;;;;;8.63;100.00;102401.22;2055171;28;24367;-75
2022/08/06 02:27:59;;;;;;;4.20;3.30;;;;;;;8.63;100.00;102406.53;2054327;28;23537;-74
2022/08/06 02:29:08;;;;;;;4.75;2.97;;;;;;;8.67;100.00;102407.47;2055363;28;22827;-75
2022/08/06 02:30:16;;;;;;;4.40;3.10;;;;;;;8.63;100.00;102409.22;2054838;28;22034;-74
2022/08/06 02:31:21;;;;;;;3.63;2.80;;;;;;;8.62;100.00;102418.13;2055060;28;24581;-74
2022/08/06 02:32:23;;;;;;;5.70;3.20;;;;;;;8.59;100.00;102402.97;2054579;28;32195;-74
2022/08/06 02:33:27;;;;;;;5.70;3.30;;;;;;;8.58;100.00;102411.88;2055463;28;20114;-74
2022/08/06 02:34:33;;;;;;;3.80;2.92;;;;;;;8.58;100.00;102409.19;2054366;28;25327;-74
2022/08/06 02:35:47;;;;;;;5.30;3.95;;;;;;;8.60;100.00;102406.53;2054822;28;23931;-75
2022/08/06 02:37:06;;;;;;;3.78;3.22;;;;;;;8.59;100.00;102404.75;2055161;28;30272;-75
2022/08/06 02:38:17;;;;;;;5.40;3.55;;;;;;;8.53;100.00;102410.03;2053526;28;38700;-74
2022/08/06 02:39:53;;;;;;;3.35;3.05;;;;;;;8.51;100.00;102409.13;2054210;28;32563;-75
2022/08/06 02:41:05;;;;;;;3.03;2.83;;;;;;;8.48;100.00;102409.97;2054907;28;32976;-74
2022/08/06 02:42:20;;;;;;;4.63;2.70;;;;;;;8.45;100.00;102412.63;2054739;28;30043;-74
2022/08/06 02:43:31;;;;;;;3.65;3.15;;;;;;;8.42;100.00;102415.28;2054911;28;27955;-75
2022/08/06 02:44:44;;;;;;;7.30;3.65;;;;;;;8.40;100.00;102417.88;2055793;28;20047;-74
2022/08/06 02:46:03;;;;;;;3.95;3.08;;;;;;;8.36;100.00;102412.50;2055838;28;35528;-74
2022/08/06 02:47:19;;;;;;;4.05;3.30;;;;;;;8.35;100.00;102416.94;2056426;28;20239;-75
2022/08/06 02:48:49;;;;;;;4.38;3.50;;;;;;;8.34;100.00;102415.16;2055151;28;34465;-75
2022/08/06 02:49:57;;;;;;;4.57;3.15;;;;;;;8.32;100.00;102414.25;2055871;28;24106;-74
2022/08/06 02:51:05;;;;;;;4.90;3.80;;;;;;;8.31;100.00;102417.81;2055090;28;38387;-75
2022/08/06 02:52:39;;;;;;;4.07;3.40;;;;;;;8.30;100.00;102413.34;2056039;28;20044;-75
2022/08/06 02:53:57;;;;;;;5.18;4.07;;;;;;;8.26;100.00;102416.84;2056243;28;24718;-75
2022/08/06 02:55:19;;;;;;;3.70;2.70;;;;;;;8.26;100.00;102416.84;2056028;28;20151;-75
2022/08/06 02:56:24;;;;;;;3.63;2.83;;;;;;;8.22;100.00;102423.03;2056377;28;20039;-75
2022/08/06 02:57:36;;;;;;;3.55;2.80;;;;;;;8.17;100.00;102420.31;2055777;28;29251;-74
2022/08/06 02:58:52;;;;;;;4.57;3.25;;;;;;;8.16;100.00;102417.63;2056254;28;20051;-75
2022/08/06 03:00:07;;;;;;;3.33;2.80;;;;;;;8.13;100.00;102420.25;2055463;28;39210;-75
2022/08/06 03:01:14;;;;;;;5.88;3.35;;;;;;;8.11;100.00;102416.69;2058570;28;34328;-75
2022/08/06 03:02:19;;;;;;;6.22;3.53;;;;;;;8.08;100.00;102414.00;2055894;28;26410;-75
2022/08/06 03:03:24;;;;;;;3.00;2.80;;;;;;;8.08;100.00;102419.34;2048659;28;33560;-75
2022/08/06 03:04:40;;;;;;;3.05;2.30;;;;;;;8.04;100.00;102413.06;2056542;28;20035;-75
2022/08/06 03:05:45;;;;;;;3.63;3.33;;;;;;;8.02;100.00;102418.38;2055529;28;28276;-75
2022/08/06 03:06:59;;;;;;;4.72;3.15;;;;;;;8.01;100.00;102418.38;2055805;28;30114;-75
2022/08/06 03:08:03;;;;;;;4.38;2.83;;;;;;;8.00;100.00;102421.88;2056084;28;23692;-74
2022/08/06 03:09:08;;;;;;;2.95;2.67;;;;;;;7.96;100.00;102431.63;2055537;28;30483;-75
2022/08/06 03:10:11;;;;;;;6.07;2.85;;;;;;;7.92;100.00;102424.47;2056292;28;20928;-74
2022/08/06 03:11:16;;;;;;;5.57;3.65;;;;;;;7.88;100.00;102425.31;2046758;28;36209;-75
2022/08/06 03:12:20;;;;;;;3.67;3.35;;;;;;;7.87;100.00;102430.63;2047764;28;36211;-75
2022/08/06 03:13:31;;;;;;;4.68;3.28;;;;;;;7.82;100.00;102427.91;2056221;28;23766;-72
2022/08/06 03:14:39;;;;;;;8.95;4.65;;;;;;;7.80;100.00;102425.22;2056116;28;20042;-68
2022/08/06 03:16:03;;;;;;;4.30;3.90;;;;;;;7.77;100.00;102429.59;2055184;28;20892;-68
2022/08/06 03:17:07;;;;;;;4.55;3.45;;;;;;;7.79;100.00;102427.88;2064197;28;21682;-69
2022/08/06 03:18:12;;;;;;;4.25;3.85;;;;;;;7.76;100.00;102428.72;2062617;28;29801;-67
2022/08/06 03:19:14;;;;;;;6.80;3.75;;;;;;;7.72;100.00;102431.34;2063228;28;23307;-65
2022/08/06 03:20:40;;;;;;;5.97;4.85;;;;;;;7.76;100.00;102427.84;2052773;28;20044;-65
2022/08/06 03:21:44;;;;;;;4.75;3.83;;;;;;;7.72;100.00;102431.34;2057076;28;20051;-66
2022/08/06 03:22:54;;;;;;;5.03;4.40;;;;;;;7.69;100.00;102431.31;2062377;28;31119;-67
2022/08/06 03:23:59;;;;;;;5.18;4.10;;;;;;;7.72;100.00;102431.34;2063118;28;35091;-65
2022/08/06 03:25:02;;;;;;;5.53;3.72;;;;;;;7.67;100.00;102433.94;2062747;28;31658;-69
2022/08/06 03:26:05;;;;;;;5.28;4.78;;;;;;;7.64;100.00;102433.88;2063451;28;32744;-73
2022/08/06 03:27:10;;;;;;;4.18;3.75;;;;;;;7.68;100.00;102440.16;2071559;28;23318;-66
2022/08/06 03:28:14;;;;;;;6.43;4.47;;;;;;;7.70;100.00;102433.06;2070808;28;26541;-68
2022/08/06 03:29:22;;;;;;;6.57;4.73;;;;;;;7.64;100.00;102434.81;2062606;28;20859;-70
2022/08/06 03:30:25;;;;;;;7.68;5.05;;;;;;;7.63;100.00;102438.34;2055226;28;25668;-65
2022/08/06 03:31:32;;;;;;;7.57;4.85;;;;;;;7.64;100.00;102440.13;2055859;28;28075;-69
2022/08/06 03:32:37;;;;;;;7.63;6.57;;;;;;;7.67;100.00;102438.38;2054659;28;20174;-65
2022/08/06 03:33:53;;;;;;;4.95;4.53;;;;;;;7.68;100.00;102435.75;2057633;28;32757;-68
2022/08/06 03:34:57;;;;;;;6.90;6.30;;;;;;;7.73;100.00;102434.00;2055982;28;20912;-69
2022/08/06 03:36:01;;;;;;;7.35;6.22;;;;;;;7.80;100.00;102437.66;2047087;28;31678;-71
2022/08/06 03:37:06;;;;;;;7.78;6.63;;;;;;;7.86;100.00;102442.16;2048265;28;27887;-70
2022/08/06 03:38:11;;;;;;;9.32;7.75;;;;;;;7.84;100.00;102440.41;2055496;28;28944;-67
2022/08/06 03:39:14;;;;;;;6.57;5.97;;;;;;;7.83;100.00;102440.38;2055438;28;31789;-66
2022/08/06 03:40:19;;;;;;;6.22;5.63;;;;;;;7.82;100.00;102443.91;2056411;28;20109;-67
2022/08/06 03:41:23;;;;;;;6.88;6.22;;;;;;;7.84;100.00;102447.47;2055328;28;30753;-66
2022/08/06 03:42:30;;;;;;;8.88;8.07;;;;;;;7.89;100.00;102439.53;2055720;28;25911;-66
2022/08/06 03:43:34;;;;;;;7.78;6.85;;;;;;;7.86;100.00;102440.41;2055357;28;27502;-67
2022/08/06 03:44:47;;;;;;;7.75;6.22;;;;;;;7.85;100.00;102446.63;2055881;28;31060;-75
2022/08/06 03:45:56;;;;;;;7.20;5.65;;;;;;;7.85;100.00;102443.94;2056676;28;20048;-68
2022/08/06 03:47:08;;;;;;;10.73;6.60;;;;;;;7.95;100.00;102444.94;2063312;28;23037;-70
2022/08/06 03:48:16;;;;;;;9.25;7.35;;;;;;;7.85;100.00;102454.63;2062102;28;32316;-69
2022/08/06 03:50:00;;;;;;;9.20;8.15;;;;;;;7.84;100.00;102452.81;2055971;28;23906;-66
2022/08/06 03:51:09;;;;;;;8.35;6.28;;;;;;;7.82;100.00;102451.91;2054658;28;38728;-69
2022/08/06 03:52:18;;;;;;;9.77;7.13;;;;;;;7.79;100.00;102451.88;2055773;28;24183;-70
2022/08/06 03:53:26;;;;;;;6.57;5.97;;;;;;;7.82;100.00;102455.47;2046779;28;31052;-70
2022/08/06 03:54:34;;;;;;;5.28;4.78;;;;;;;7.77;100.00;102461.59;2049766;28;31121;-68
2022/08/06 03:55:43;;;;;;;7.57;5.32;;;;;;;7.72;100.00;102468.66;2047316;28;28514;-66
2022/08/06 03:56:47;;;;;;;8.07;6.57;;;;;;;7.68;100.00;102453.47;2048751;28;32805;-76
2022/08/06 03:57:57;;;;;;;6.85;6.22;;;;;;;7.69;100.00;102450.84;2048880;28;20126;-66
2022/08/06 03:59:04;;;;;;;8.30;6.32;;;;;;;7.72;100.00;102456.22;2055266;28;26804;-67
2022/08/06 04:00:12;;;;;;;9.20;6.90;;;;;;;7.71;100.00;102456.19;2056747;28;20039;-66
2022/08/06 04:01:22;;;;;;;9.18;6.72;;;;;;;7.76;100.00;102459.84;2056192;28;20271;-66
2022/08/06 04:02:29;;;;;;;7.13;6.47;;;;;;;7.75;100.00;102458.03;2054992;28;30987;-66
2022/08/06 04:03:39;;;;;;;6.43;5.03;;;;;;;7.74;100.00;102465.13;2054896;28;20620;-68
2022/08/06 04:04:43;;;;;;;6.00;5.10;;;;;;;7.73;100.00;102459.78;2046523;28;29456;-66
2022/08/06 04:05:46;;;;;;;6.07;5.47;;;;;;;7.73;100.00;102460.66;2047894;28;26461;-70
2022/08/06 04:06:49;;;;;;;6.30;5.47;;;;;;;7.75;100.00;102463.34;2055301;28;21244;-72
2022/08/06 04:08:07;;;;;;;7.57;6.78;;;;;;;7.78;100.00;102468.75;2054605;28;31299;-67
2022/08/06 04:09:10;;;;;;;6.82;6.13;;;;;;;7.77;100.00;102467.84;2055626;28;29513;-68
2022/08/06 04:10:15;;;;;;;13.38;8.20;;;;;;;7.84;100.00;102469.72;2047283;28;26503;-70
2022/08/06 04:11:18;;;;;;;6.65;6.00;;;;;;;7.86;100.00;102472.41;2048230;28;23975;-68
2022/08/06 04:12:43;;;;;;;7.22;6.53;;;;;;;7.85;100.00;102475.94;2056131;28;20820;-65
2022/08/06 04:14:07;;;;;;;8.07;6.15;;;;;;;7.89;100.00;102471.53;2054131;28;20039;-75
2022/08/06 04:15:12;;;;;;;8.52;6.68;;;;;;;7.87;100.00;102474.19;2055177;28;34802;-75
2022/08/06 04:16:16;;;;;;;8.20;7.43;;;;;;;7.91;100.00;102478.69;2054981;28;21467;-74
2022/08/06 04:17:31;;;;;;;8.52;7.15;;;;;;;7.96;100.00;102479.63;2055457;28;30657;-75
2022/08/06 04:18:38;;;;;;;9.35;8.30;;;;;;;8.00;100.00;102481.50;2054937;28;26991;-75
2022/08/06 04:19:46;;;;;;;8.25;7.45;;;;;;;8.05;100.00;102489.53;2055521;28;20047;-75
2022/08/06 04:20:53;;;;;;;10.10;8.60;;;;;;;8.08;100.00;102484.25;2056314;28;33407;-75
2022/08/06 04:21:57;;;;;;;10.25;7.85;;;;;;;8.10;100.00;102482.47;2062299;28;30911;-75
2022/08/06 04:23:20;;;;;;;8.68;7.78;;;;;;;8.15;100.00;102486.09;2056141;28;20043;-75
2022/08/06 04:24:25;;;;;;;8.40;6.63;;;;;;;8.19;100.00;102489.72;2054925;28;33886;-75
2022/08/06 04:25:39;;;;;;;11.38;7.70;;;;;;;8.29;100.00;102493.38;2055641;28;29822;-75
2022/08/06 04:26:45;;;;;;;9.50;7.68;;;;;;;8.54;100.00;102483.88;2055156;28;28246;-75
2022/08/06 04:27:50;;;;;;;8.55;7.75;;;;;;;8.95;100.00;102486.06;2055628;28;21704;-75
2022/08/06 04:28:56;;;;;;;8.50;7.55;;;;;;;9.49;100.00;102476.69;2054879;28;37581;-75
2022/08/06 04:30:00;;;;;;;7.72;7.03;;;;;;;10.05;100.00;102482.31;2055172;28;30306;-76
2022/08/06 04:31:04;;;;;;;7.82;5.80;;;;;;;10.61;100.00;102486.09;2055042;28;29604;-75
2022/08/06 04:32:09;;;;;;;6.30;5.38;;;;;;;11.12;100.00;102481.66;2055205;28;26316;-75
2022/08/06 04:33:19;;;;;;;4.10;3.80;;;;;;;11.76;100.00;102485.13;2055207;28;21484;-76
2022/08/06 04:34:25;;;;;;;4.15;2.60;;;;;;;12.31;99.34;102484.03;2055211;28;25843;-75
2022/08/06 04:35:31;;;;;;;5.32;2.10;;;;;;;12.91;96.68;102478.28;2055116;28;29576;-76
2022/08/06 04:36:54;;;;;;;4.18;1.92;;;;;;;13.62;92.40;102469.53;2051177;28;20035;-76
2022/08/06 04:37:58;;;;;;;1.77;1.55;;;;;;;14.12;88.76;102477.03;2055118;28;31422;-76
2022/08/06 04:39:01;;;;;;;3.50;1.27;;;;;;;14.58;84.68;102474.63;2054708;28;34833;-76
2022/08/06 04:40:07;;;;;;;2.35;1.10;;;;;;;15.09;81.86;102474.69;2055013;28;29726;-76
2022/08/06 04:41:14;;;;;;;4.03;1.02;;;;;;;15.65;79.22;102471.91;2054861;28;26735;-76
2022/08/06 04:42:17;;;;;;;1.58;0.70;;;;;;;16.10;76.72;102471.03;2055264;28;29829;-76
2022/08/06 04:43:20;;;;;;;1.10;0.60;;;;;;;16.55;73.88;102466.38;2054969;28;34126;-75
2022/08/06 04:44:22;;;;;;;1.05;0.60;;;;;;;17.01;72.04;102469.78;2055772;28;20050;-76
2022/08/06 04:45:28;;;;;;;1.50;0.63;;;;;;;17.10;67.72;102469.59;2054831;28;31351;-76
2022/08/06 04:46:51;;;;;;;0.90;0.50;;;;;;;17.10;63.33;102471.38;2055764;28;20043;-75
2022/08/06 04:47:54;;;;;;;2.25;0.80;;;;;;;17.61;66.13;102468.22;2055315;28;21377;-75
2022/08/06 04:48:55;;;;;;;1.75;0.55;;;;;;;17.77;64.49;102478.63;2054643;28;27497;-75
2022/08/06 04:50:02;;;;;;;2.03;0.70;;;;;;;17.91;64.07;102477.31;2055318;28;29964;-75
2022/08/06 04:51:08;;;;;;;1.85;0.52;;;;;;;18.23;62.03;102475.47;2054712;28;31511;-75
2022/08/06 04:52:22;;;;;;;1.52;0.60;;;;;;;18.10;59.83;102476.78;2055097;28;31174;-75
2022/08/06 04:53:40;;;;;;;1.67;0.65;;;;;;;18.07;59.72;102482.28;2055134;28;26587;-75
2022/08/06 04:54:44;;;;;;;0.90;0.65;;;;;;;18.11;60.75;102478.56;2055015;28;28093;-74
2022/08/06 04:55:47;;;;;;;3.65;0.70;;;;;;;18.72;60.02;102480.28;2055051;28;23789;-74
2022/08/06 04:56:52;;;;;;;1.50;0.68;;;;;;;18.85;57.80;102473.56;2055642;28;29781;-74
2022/08/06 04:57:54;;;;;;;2.83;0.50;;;;;;;18.82;57.68;102477.25;2055131;28;31016;-75
2022/08/06 04:58:58;;;;;;;1.83;0.30;;;;;;;19.29;58.38;102481.13;2055875;28;27597;-74
2022/08/06 05:00:00;;;;;;;1.48;0.52;;;;;;;19.83;56.39;102478.28;2055379;28;23953;-75
2022/08/06 05:01:02;;;;;;;1.25;0.70;;;;;;;19.17;55.52;102482.44;2056005;28;21939;-73
2022/08/06 05:02:10;;;;;;;2.05;0.50;;;;;;;19.89;54.21;102479.00;2054725;28;29496;-73
2022/08/06 05:03:14;;;;;;;1.10;0.52;;;;;;;20.25;55.21;102483.97;2055250;28;25108;-75
2022/08/06 05:04:16;;;;;;;2.30;0.50;;;;;;;20.28;54.19;102475.66;2055190;28;30156;-75
2022/08/06 05:05:20;;;;;;;2.40;0.52;;;;;;;20.61;53.55;102481.66;2055333;28;31204;-75
2022/08/06 05:06:40;;;;;;;1.10;0.40;;;;;;;20.87;54.12;102479.69;2055193;28;20118;-75
2022/08/06 05:07:55;;;;;;;1.15;0.50;;;;;;;20.92;51.38;102480.38;2055633;28;20035;-75
2022/08/06 05:09:09;;;;;;;1.77;0.60;;;;;;;21.67;49.05;102474.41;2055623;28;23721;-76
2022/08/06 05:10:25;;;;;;;1.33;0.40;;;;;;;22.08;49.89;102484.38;2054780;28;29686;-73
2022/08/06 05:11:37;;;;;;;3.22;0.40;;;;;;;22.29;46.58;102482.50;2055200;28;20087;-73
2022/08/06 05:12:48;;;;;;;0.82;0.40;;;;;;;21.85;46.53;102478.13;2055403;28;25415;-73
2022/08/06 05:14:01;;;;;;;1.65;0.30;;;;;;;22.26;49.02;102478.06;2055726;28;30854;-73
2022/08/06 05:15:14;;;;;;;2.22;0.47;;;;;;;22.61;45.93;102488.22;2055550;28;20043;-76
2022/08/06 05:16:24;;;;;;;1.95;0.40;;;;;;;21.70;46.98;102479.72;2055250;28;26867;-73
2022/08/06 05:17:36;;;;;;;1.40;0.40;;;;;;;22.09;47.17;102483.41;2055305;28;31284;-75
2022/08/06 05:19:00;;;;;;;1.23;0.35;;;;;;;22.82;44.52;102478.97;2054648;28;28939;-73
2022/08/06 05:20:19;;;;;;;0.63;0.35;;;;;;;23.04;44.50;102478.81;2054539;28;23381;-74
2022/08/06 05:21:36;;;;;;;1.40;0.32;;;;;;;23.82;44.38;102481.16;2054679;28;41031;-73
2022/08/06 05:22:42;;;;;;;2.85;0.40;;;;;;;24.24;43.19;102485.22;2054515;28;31288;-73
2022/08/06 05:23:54;;;;;;;0.93;0.32;;;;;;;23.81;44.19;102482.09;2055765;28;26907;-72